createdAt,value
2018-07-06T00:02:34.991Z,6.57
2018-07-06T00:05:14.722Z,7.63
2018-07-06T00:07:54.406Z,6.70
2018-07-06T00:10:34.097Z,7.30
2018-07-06T00:13:13.687Z,6.47
2018-07-06T00:15:53.282Z,8.53
2018-07-06T00:18:32.969Z,7.17
2018-07-06T00:21:12.697Z,7.27
2018-07-06T00:23:52.415Z,7.87
2018-07-06T00:26:32.303Z,7.30
2018-07-06T00:29:12.115Z,7.20
2018-07-06T00:31:51.766Z,6.67
2018-07-06T00:34:31.436Z,6.20
2018-07-06T00:37:05.031Z,6.27
2018-07-06T00:39:44.766Z,6.23
2018-07-06T00:42:24.505Z,6.37
2018-07-06T00:45:04.276Z,5.93
2018-07-06T00:47:44.075Z,6.07
2018-07-06T00:50:23.648Z,6.40
2018-07-06T00:53:03.294Z,7.50
2018-07-06T00:55:42.971Z,5.50
2018-07-06T00:58:24.019Z,6.67
2018-07-06T01:01:04.304Z,6.13
2018-07-06T01:03:44.136Z,6.33
2018-07-06T01:06:23.871Z,7.07
2018-07-06T01:09:04.041Z,6.57
2018-07-06T01:11:43.642Z,6.30
2018-07-06T01:14:23.402Z,8.33
2018-07-06T01:17:03.095Z,7.77
2018-07-06T01:19:42.775Z,8.13
2018-07-06T01:22:22.466Z,7.63
2018-07-06T01:25:02.144Z,8.77
2018-07-06T01:27:41.728Z,8.07
2018-07-06T01:30:21.458Z,12.20
2018-07-06T01:33:01.106Z,8.00
2018-07-06T01:35:40.775Z,8.47
2018-07-06T01:38:20.442Z,7.07
2018-07-06T01:41:00.050Z,7.07
2018-07-06T01:43:39.813Z,7.30
2018-07-06T01:46:19.609Z,7.23
2018-07-06T01:48:59.278Z,7.90
2018-07-06T01:51:38.997Z,7.90
2018-07-06T01:54:18.758Z,7.57
2018-07-06T01:56:58.509Z,8.03
2018-07-06T01:59:38.326Z,8.40
2018-07-06T02:02:17.988Z,11.50
2018-07-06T02:04:57.738Z,9.43
2018-07-06T02:07:37.367Z,11.47
2018-07-06T02:10:16.904Z,7.77
2018-07-06T02:12:56.596Z,8.30
2018-07-06T02:15:36.233Z,9.43
2018-07-06T02:18:15.844Z,8.70
2018-07-06T02:20:55.688Z,9.43
2018-07-06T02:23:35.336Z,10.00
2018-07-06T02:26:15.066Z,10.40
2018-07-06T02:28:54.739Z,10.30
2018-07-06T02:31:34.412Z,11.90
2018-07-06T02:34:14.100Z,10.17
2018-07-06T02:36:53.815Z,10.90
2018-07-06T02:39:33.502Z,12.17
2018-07-06T02:42:13.013Z,11.90
2018-07-06T02:44:52.640Z,12.53
2018-07-06T02:47:32.501Z,11.30
2018-07-06T02:50:12.343Z,15.27
2018-07-06T02:52:52.030Z,11.97
2018-07-06T02:55:31.833Z,11.97
2018-07-06T02:58:11.465Z,11.50
2018-07-06T03:00:51.161Z,17.13
2018-07-06T03:03:30.863Z,15.50
2018-07-06T03:06:10.673Z,14.13
2018-07-06T03:08:50.373Z,15.03
2018-07-06T03:11:24.053Z,15.17
2018-07-06T03:14:03.762Z,15.27
2018-07-06T03:16:43.422Z,16.30
2018-07-06T03:19:23.140Z,14.13
2018-07-06T03:22:02.831Z,15.07
2018-07-06T03:24:42.428Z,13.67
2018-07-06T03:27:22.038Z,15.20
2018-07-06T03:30:01.629Z,13.30
2018-07-06T03:32:41.210Z,14.13
2018-07-06T03:35:20.841Z,11.97
2018-07-06T03:38:00.345Z,13.10
2018-07-06T03:40:40.172Z,12.87
2018-07-06T03:43:19.851Z,13.97
2018-07-06T03:45:59.564Z,11.73
2018-07-06T03:48:39.244Z,10.83
2018-07-06T03:51:18.809Z,11.50
2018-07-06T03:53:58.598Z,13.80
2018-07-06T03:56:38.213Z,11.13
2018-07-06T03:59:17.747Z,10.80
2018-07-06T04:01:57.394Z,10.47
2018-07-06T04:04:37.036Z,10.70
2018-07-06T04:07:16.761Z,10.73
2018-07-06T04:09:56.442Z,11.33
2018-07-06T04:12:36.253Z,11.10
2018-07-06T04:15:15.729Z,11.47
2018-07-06T04:17:55.506Z,12.43
2018-07-06T04:20:35.194Z,16.17
2018-07-06T04:23:15.019Z,11.57
2018-07-06T04:25:54.854Z,11.10
2018-07-06T04:28:34.498Z,10.40
2018-07-06T04:31:14.079Z,10.70
2018-07-06T04:33:53.675Z,11.57
2018-07-06T04:36:33.463Z,12.90
2018-07-06T04:39:13.341Z,10.70
2018-07-06T04:41:53.351Z,11.10
2018-07-06T04:44:32.944Z,12.43
2018-07-06T04:47:12.603Z,13.77
2018-07-06T04:49:52.306Z,13.33
2018-07-06T04:52:31.972Z,11.50
2018-07-06T04:55:11.582Z,12.30
2018-07-06T04:57:51.345Z,22.10
2018-07-06T05:00:30.954Z,14.87
2018-07-06T05:03:10.597Z,12.43
2018-07-06T05:05:50.327Z,13.57
2018-07-06T05:08:30.053Z,13.47
2018-07-06T05:11:09.750Z,18.73
2018-07-06T05:13:49.398Z,14.77
2018-07-06T05:16:29.114Z,14.50
2018-07-06T05:19:08.662Z,12.40
2018-07-06T05:21:48.192Z,12.43
2018-07-06T05:24:27.736Z,12.00
2018-07-06T05:27:07.427Z,102.17
2018-07-06T05:29:47.248Z,13.47
2018-07-06T05:32:27.056Z,13.83
2018-07-06T05:35:06.692Z,11.80
2018-07-06T05:37:46.322Z,13.00
2018-07-06T05:40:27.081Z,13.63
2018-07-06T05:43:06.724Z,14.40
2018-07-06T05:45:46.645Z,16.10
2018-07-06T05:48:26.321Z,19.97
2018-07-06T05:51:06.007Z,15.93
2018-07-06T05:53:45.646Z,23.77
2018-07-06T05:56:25.285Z,22.00
2018-07-06T05:59:04.929Z,21.00
2018-07-06T06:01:44.667Z,18.63
2018-07-06T06:04:24.344Z,19.83
2018-07-06T06:07:04.110Z,18.20
2018-07-06T06:09:32.737Z,18.43
2018-07-06T06:12:01.184Z,19.63
2018-07-06T06:14:29.608Z,17.73
2018-07-06T06:16:58.065Z,15.77
2018-07-06T06:19:26.725Z,13.17
2018-07-06T06:21:55.443Z,14.40
2018-07-06T06:24:23.824Z,14.20
2018-07-06T06:26:52.254Z,13.83
2018-07-06T06:29:20.690Z,16.80
2018-07-06T06:31:49.100Z,13.97
2018-07-06T06:34:17.716Z,13.93
2018-07-06T06:36:46.358Z,15.37
2018-07-06T06:39:14.926Z,15.27
2018-07-06T06:41:43.350Z,15.87
2018-07-06T06:44:11.822Z,16.77
2018-07-06T06:46:40.298Z,18.53
2018-07-06T06:49:08.705Z,17.87
2018-07-06T06:51:37.150Z,19.80
2018-07-06T06:54:05.573Z,22.20
2018-07-06T06:56:34.077Z,20.13
2018-07-06T06:59:02.540Z,24.27
2018-07-06T07:01:30.900Z,25.43
2018-07-06T07:03:59.547Z,26.77
2018-07-06T07:06:27.978Z,25.07
2018-07-06T07:08:56.464Z,25.03
2018-07-06T07:11:24.932Z,20.07
2018-07-06T07:13:53.503Z,16.83
2018-07-06T07:16:21.895Z,15.13
2018-07-06T07:18:50.030Z,16.03
2018-07-06T07:21:18.660Z,13.87
2018-07-06T07:23:46.858Z,13.53
2018-07-06T07:26:15.369Z,12.70
2018-07-06T07:28:43.815Z,15.20
2018-07-06T07:31:12.236Z,14.87
2018-07-06T07:33:40.629Z,15.07
2018-07-06T07:36:09.014Z,16.30
2018-07-06T07:38:37.438Z,15.13
2018-07-06T07:41:05.864Z,14.73
2018-07-06T07:43:34.315Z,14.97
2018-07-06T07:46:02.737Z,17.80
2018-07-06T07:48:31.191Z,18.43
2018-07-06T07:51:10.875Z,17.03
2018-07-06T07:53:50.551Z,17.17
2018-07-06T07:56:19.010Z,21.10
2018-07-06T07:58:47.422Z,16.23
2018-07-06T08:01:16.034Z,17.07
2018-07-06T08:03:44.412Z,17.63
2018-07-06T08:06:12.847Z,18.70
2018-07-06T08:08:41.275Z,19.27
2018-07-06T08:11:09.672Z,31.57
2018-07-06T08:13:38.276Z,24.83
2018-07-06T08:16:06.696Z,24.43
2018-07-06T08:18:35.091Z,20.13
2018-07-06T08:21:03.518Z,21.10
2018-07-06T08:23:31.913Z,21.67
2018-07-06T08:26:00.375Z,22.23
2018-07-06T08:28:28.779Z,22.00
2018-07-06T08:30:57.191Z,23.10
2018-07-06T08:33:28.094Z,22.70
2018-07-06T08:36:07.885Z,23.00
2018-07-06T08:38:36.262Z,25.37
2018-07-06T08:41:04.640Z,22.97
2018-07-06T08:43:33.052Z,23.40
2018-07-06T08:46:01.637Z,22.93
2018-07-06T08:48:30.060Z,23.13
2018-07-06T08:50:58.439Z,21.70
2018-07-06T08:53:26.832Z,21.60
2018-07-06T08:55:55.284Z,24.47
2018-07-06T08:58:23.816Z,24.93
2018-07-06T09:00:52.243Z,24.27
2018-07-06T09:03:20.632Z,25.67
2018-07-06T09:05:49.059Z,23.63
2018-07-06T09:08:17.603Z,22.43
2018-07-06T09:10:45.992Z,21.33
2018-07-06T09:13:14.504Z,21.23
2018-07-06T09:15:42.866Z,21.77
2018-07-06T09:18:11.259Z,20.03
2018-07-06T09:20:39.625Z,20.43
2018-07-06T09:23:08.006Z,19.97
2018-07-06T09:25:36.474Z,17.70
2018-07-06T09:28:04.905Z,16.37
2018-07-06T09:30:33.508Z,15.35
2018-07-06T09:33:01.775Z,12.93
2018-07-06T09:35:30.174Z,14.28
2018-07-06T09:37:58.528Z,13.50
2018-07-06T09:40:26.924Z,11.95
2018-07-06T09:42:55.273Z,12.15
2018-07-06T09:45:23.694Z,16.93
2018-07-06T09:47:52.219Z,16.35
2018-07-06T09:50:20.664Z,10.78
2018-07-06T09:52:49.012Z,10.78
2018-07-06T09:55:17.404Z,11.50
2018-07-06T09:57:45.764Z,10.60
2018-07-06T10:00:18.415Z,12.28
2018-07-06T10:02:46.815Z,11.40
2018-07-06T10:05:15.241Z,11.80
2018-07-06T10:07:43.618Z,9.08
2018-07-06T10:10:12.096Z,11.50
2018-07-06T10:12:40.596Z,9.95
2018-07-06T10:15:08.913Z,10.60
2018-07-06T10:17:37.325Z,10.08
2018-07-06T10:20:06.083Z,8.77
2018-07-06T10:22:34.621Z,9.93
2018-07-06T10:25:03.085Z,9.23
2018-07-06T10:27:44.645Z,41.68
2018-07-06T10:30:22.374Z,9.45
2018-07-06T10:32:50.717Z,9.50
2018-07-06T10:35:19.117Z,9.38
2018-07-06T10:37:47.470Z,6.87
2018-07-06T10:40:15.903Z,7.55
2018-07-06T10:42:44.300Z,9.25
2018-07-06T10:45:12.690Z,9.43
2018-07-06T10:47:41.107Z,9.23
2018-07-06T10:50:09.474Z,8.70
2018-07-06T10:52:37.861Z,8.58
2018-07-06T10:55:06.240Z,6.12
2018-07-06T10:57:34.723Z,7.12
2018-07-06T11:00:03.138Z,7.85
2018-07-06T11:02:31.557Z,7.85
2018-07-06T11:05:00.040Z,7.47
2018-07-06T11:07:28.376Z,6.72
2018-07-06T11:09:56.781Z,6.53
2018-07-06T11:12:25.171Z,6.45
2018-07-06T11:14:53.696Z,9.98
2018-07-06T11:17:21.824Z,6.70
2018-07-06T11:19:50.214Z,5.92
2018-07-06T11:22:18.674Z,6.42
2018-07-06T11:24:47.086Z,5.75
2018-07-06T11:27:15.534Z,6.90
2018-07-06T11:29:44.001Z,12.23
2018-07-06T11:32:12.452Z,6.80
2018-07-06T11:34:40.848Z,6.28
2018-07-06T11:37:09.237Z,5.72
2018-07-06T11:39:37.656Z,5.15
2018-07-06T11:42:06.090Z,5.12
2018-07-06T11:44:34.527Z,5.58
2018-07-06T11:47:02.919Z,6.05
2018-07-06T11:49:31.277Z,12.28
2018-07-06T11:51:59.753Z,5.83
2018-07-06T11:54:28.235Z,5.62
2018-07-06T11:56:57.597Z,5.85
2018-07-06T11:59:26.083Z,6.83
2018-07-06T12:01:54.516Z,6.08
2018-07-06T12:04:23.266Z,8.35
2018-07-06T12:06:51.707Z,5.40
2018-07-06T12:09:20.095Z,5.53
2018-07-06T12:11:48.508Z,6.20
2018-07-06T12:14:16.926Z,6.58
2018-07-06T12:16:45.330Z,7.20
2018-07-06T12:19:13.819Z,6.80
2018-07-06T12:21:42.243Z,7.95
2018-07-06T12:24:10.633Z,6.55
2018-07-06T12:26:38.997Z,6.40
2018-07-06T12:29:07.435Z,8.63
2018-07-06T12:31:35.849Z,5.50
2018-07-06T12:34:04.227Z,6.35
2018-07-06T12:36:32.569Z,5.40
2018-07-06T12:39:01.080Z,6.65
2018-07-06T12:41:29.583Z,5.40
2018-07-06T12:43:58.118Z,5.85
2018-07-06T12:46:26.711Z,5.37
2018-07-06T12:48:55.348Z,5.60
2018-07-06T12:51:23.816Z,4.45
2018-07-06T12:53:52.196Z,5.28
2018-07-06T12:56:20.772Z,4.75
2018-07-06T12:58:49.299Z,6.20
2018-07-06T13:01:19.311Z,5.05
2018-07-06T13:03:47.913Z,6.08
2018-07-06T13:06:16.314Z,5.72
2018-07-06T13:08:44.833Z,4.87
2018-07-06T13:11:13.307Z,4.45
2018-07-06T13:13:41.761Z,4.78
2018-07-06T13:16:10.362Z,4.40
2018-07-06T13:18:38.941Z,3.50
2018-07-06T13:21:07.469Z,4.45
2018-07-06T13:23:35.962Z,3.70
2018-07-06T13:26:04.368Z,6.55
2018-07-06T13:28:32.869Z,3.50
2018-07-06T13:31:01.209Z,3.52
2018-07-06T13:33:29.617Z,3.42
2018-07-06T13:35:57.952Z,2.85
2018-07-06T13:38:26.424Z,3.10
2018-07-06T13:40:54.843Z,3.95
2018-07-06T13:43:23.586Z,3.30
2018-07-06T13:45:51.979Z,2.67
2018-07-06T13:48:20.380Z,3.37
2018-07-06T13:50:48.925Z,3.12
2018-07-06T13:53:17.334Z,3.40
2018-07-06T13:55:45.714Z,3.80
2018-07-06T13:58:14.335Z,4.33
2018-07-06T14:00:42.685Z,3.70
2018-07-06T14:03:11.146Z,3.90
2018-07-06T14:05:39.517Z,3.55
2018-07-06T14:08:07.984Z,3.45
2018-07-06T14:10:36.391Z,3.72
2018-07-06T14:13:04.875Z,3.33
2018-07-06T14:15:33.310Z,3.50
2018-07-06T14:18:01.976Z,3.50
2018-07-06T14:20:30.524Z,4.00
2018-07-06T14:22:58.865Z,4.10
2018-07-06T14:25:27.486Z,3.62
2018-07-06T14:27:55.880Z,3.67
2018-07-06T14:30:24.489Z,7.60
2018-07-06T14:32:53.112Z,4.78
2018-07-06T14:35:21.763Z,3.62
2018-07-06T14:37:50.721Z,3.50
2018-07-06T14:40:19.172Z,3.30
2018-07-06T14:42:47.657Z,3.70
2018-07-06T14:45:16.139Z,3.62
2018-07-06T14:47:44.689Z,3.52
2018-07-06T14:50:13.109Z,7.75
2018-07-06T14:52:41.711Z,3.45
2018-07-06T14:55:10.297Z,3.00
2018-07-06T14:57:39.031Z,3.47
2018-07-06T15:00:07.896Z,3.15
2018-07-06T15:02:36.571Z,2.98
2018-07-06T15:05:05.203Z,3.62
2018-07-06T15:07:33.931Z,3.80
2018-07-06T15:10:02.523Z,3.35
2018-07-06T15:12:30.992Z,3.83
2018-07-06T15:14:59.388Z,4.53
2018-07-06T15:17:27.840Z,2.83
2018-07-06T15:19:56.329Z,5.37
2018-07-06T15:22:24.793Z,3.80
2018-07-06T15:24:53.203Z,4.17
2018-07-06T15:27:21.594Z,4.42
2018-07-06T15:29:49.996Z,3.62
2018-07-06T15:32:18.334Z,3.45
2018-07-06T15:37:49.600Z,3.00
2018-07-06T15:40:18.104Z,3.60
2018-07-06T15:42:46.503Z,3.90
2018-07-06T15:45:14.911Z,3.30
2018-07-06T15:47:43.284Z,3.17
2018-07-06T15:50:11.695Z,2.85
2018-07-06T15:52:40.085Z,3.55
2018-07-06T15:55:08.494Z,3.30
2018-07-06T15:57:37.020Z,3.35
2018-07-06T16:00:05.385Z,3.58
2018-07-06T16:02:33.525Z,3.85
2018-07-06T16:05:01.932Z,4.70
2018-07-06T16:07:30.351Z,6.08
2018-07-06T16:09:58.809Z,4.65
2018-07-06T16:12:27.248Z,3.83
2018-07-06T16:14:55.772Z,3.80
2018-07-06T16:17:24.251Z,4.03
2018-07-06T16:19:52.903Z,3.87
2018-07-06T16:22:21.331Z,6.20
2018-07-06T16:24:49.866Z,4.00
2018-07-06T16:27:18.251Z,5.55
2018-07-06T16:29:46.922Z,5.15
2018-07-06T16:32:15.420Z,5.08
2018-07-06T16:34:43.859Z,5.85
2018-07-06T16:37:12.259Z,5.03
2018-07-06T16:41:10.102Z,3.80
2018-07-06T16:43:38.487Z,3.90
2018-07-06T16:46:06.957Z,3.70
2018-07-06T16:48:35.440Z,4.72
2018-07-06T16:51:03.847Z,3.77
2018-07-06T16:53:32.256Z,4.70
2018-07-06T16:56:00.675Z,3.85
2018-07-06T16:58:29.041Z,3.98
2018-07-06T17:00:57.418Z,3.85
2018-07-06T17:03:25.849Z,6.30
2018-07-06T17:05:54.361Z,4.83
2018-07-06T17:08:22.753Z,3.92
2018-07-06T17:10:51.174Z,4.15
2018-07-06T17:13:19.538Z,6.17
2018-07-06T17:15:47.947Z,4.30
2018-07-06T17:18:16.484Z,3.50
2018-07-06T17:20:44.899Z,3.83
2018-07-06T17:23:13.286Z,4.42
2018-07-06T17:25:41.701Z,3.35
2018-07-06T17:28:10.145Z,3.50
2018-07-06T17:30:38.596Z,5.10
2018-07-06T17:33:07.059Z,4.57
2018-07-06T17:35:35.530Z,4.50
2018-07-06T17:42:40.971Z,3.80
2018-07-06T17:45:09.411Z,4.83
2018-07-06T17:47:37.826Z,4.87
2018-07-06T17:50:06.286Z,4.67
2018-07-06T17:52:34.679Z,5.67
2018-07-06T17:55:03.098Z,4.10
2018-07-06T17:57:31.541Z,4.07
2018-07-06T18:00:00.006Z,4.43
2018-07-06T18:02:28.430Z,3.43
2018-07-06T18:04:56.830Z,3.87
2018-07-06T18:07:25.257Z,3.33
2018-07-06T18:09:53.607Z,5.43
2018-07-06T18:12:22.030Z,5.30
2018-07-06T18:14:50.472Z,3.70
2018-07-06T18:17:18.959Z,4.00
2018-07-06T18:19:47.386Z,5.53
2018-07-06T18:22:15.768Z,6.50
2018-07-06T18:24:44.279Z,7.07
2018-07-06T18:27:12.668Z,5.80
2018-07-06T18:29:41.169Z,3.53
2018-07-06T18:32:09.468Z,4.70
2018-07-06T18:34:38.122Z,3.80
2018-07-06T18:37:06.602Z,3.60
2018-07-06T18:39:35.117Z,3.60
2018-07-06T18:42:03.684Z,4.00
2018-07-06T18:44:32.150Z,4.80
2018-07-06T18:47:00.577Z,3.47
2018-07-06T18:49:28.966Z,12.93
2018-07-06T18:51:57.390Z,4.53
2018-07-06T18:54:25.831Z,3.43
2018-07-06T18:56:54.202Z,3.43
2018-07-06T18:59:22.610Z,3.13
2018-07-06T19:01:51.025Z,6.83
2018-07-06T19:04:19.412Z,8.63
2018-07-06T19:06:47.775Z,3.40
2018-07-06T19:09:16.126Z,4.83
2018-07-06T19:11:44.491Z,3.63
2018-07-06T19:14:12.889Z,4.10
2018-07-06T19:16:41.327Z,5.13
2018-07-06T19:19:09.759Z,4.07
2018-07-06T19:21:38.175Z,3.77
2018-07-06T19:24:06.577Z,4.10
2018-07-06T19:26:35.048Z,3.70
2018-07-06T19:29:03.441Z,3.93
2018-07-06T19:31:31.863Z,5.40
2018-07-06T19:34:00.269Z,6.03
2018-07-06T19:36:28.722Z,4.00
2018-07-06T19:38:57.108Z,4.43
2018-07-06T19:41:25.515Z,6.40
2018-07-06T19:43:53.953Z,24.80
2018-07-06T19:46:22.373Z,11.13
2018-07-06T19:48:50.773Z,7.73
2018-07-06T19:51:19.202Z,6.13
2018-07-06T19:53:47.621Z,7.10
2018-07-06T19:56:16.159Z,5.70
2018-07-06T19:58:44.571Z,4.67
2018-07-06T20:01:13.074Z,5.10
2018-07-06T20:03:41.430Z,5.30
2018-07-06T20:06:10.102Z,5.17
2018-07-06T20:08:38.474Z,5.87
2018-07-06T20:11:06.916Z,4.73
2018-07-06T20:13:35.284Z,4.90
2018-07-06T20:16:03.771Z,4.17
2018-07-06T20:18:32.170Z,4.73
2018-07-06T20:21:00.560Z,5.27
2018-07-06T20:23:28.931Z,4.17
2018-07-06T20:25:57.269Z,4.07
2018-07-06T20:28:25.685Z,3.77
2018-07-06T20:30:54.102Z,3.87
2018-07-06T20:33:22.540Z,4.17
2018-07-06T20:35:50.913Z,4.63
2018-07-06T20:38:19.314Z,4.73
2018-07-06T20:40:47.705Z,4.20
2018-07-06T20:43:16.115Z,4.13
2018-07-06T20:45:44.530Z,4.67
2018-07-06T20:48:12.923Z,5.07
2018-07-06T20:50:41.302Z,4.97
2018-07-06T20:53:09.766Z,4.57
2018-07-06T20:55:38.109Z,5.17
2018-07-06T20:58:06.501Z,6.60
2018-07-06T21:00:34.905Z,3.90
2018-07-06T21:03:03.293Z,5.07
2018-07-06T21:05:31.705Z,5.20
2018-07-06T21:08:00.131Z,4.93
2018-07-06T21:10:28.539Z,6.53
2018-07-06T21:12:56.977Z,4.90
2018-07-06T21:15:25.481Z,4.03
2018-07-06T21:17:53.913Z,5.03
2018-07-06T21:20:22.385Z,5.13
2018-07-06T21:22:50.838Z,4.70
2018-07-06T21:25:19.302Z,4.87
2018-07-06T21:27:47.770Z,4.77
2018-07-06T21:30:16.254Z,4.80
2018-07-06T21:32:44.657Z,5.07
2018-07-06T21:35:13.068Z,5.07
2018-07-06T21:37:41.521Z,5.00
2018-07-06T21:40:10.806Z,5.07
2018-07-06T21:42:39.196Z,5.43
2018-07-06T21:45:07.927Z,6.10
2018-07-06T21:47:36.334Z,6.03
2018-07-06T21:50:04.812Z,5.37
2018-07-06T21:52:33.402Z,5.13
2018-07-06T21:55:01.845Z,5.93
2018-07-06T21:57:30.259Z,5.67
2018-07-06T21:59:58.932Z,5.93
2018-07-06T22:02:27.339Z,6.50
2018-07-06T22:04:55.705Z,5.97
2018-07-06T22:07:24.113Z,6.37
2018-07-06T22:09:52.571Z,5.60
2018-07-06T22:12:20.959Z,7.20
2018-07-06T22:14:49.067Z,7.00
2018-07-06T22:17:17.475Z,5.70
2018-07-06T22:19:45.895Z,6.23
2018-07-06T22:22:14.306Z,5.73
2018-07-06T22:24:42.673Z,5.50
2018-07-06T22:27:11.027Z,5.37
2018-07-06T22:29:39.430Z,5.67
2018-07-06T22:32:07.883Z,5.37
2018-07-06T22:34:36.325Z,5.80
2018-07-06T22:37:04.727Z,5.73
2018-07-06T22:39:33.196Z,6.43
2018-07-06T22:42:01.538Z,6.10
2018-07-06T22:44:29.978Z,8.63
2018-07-06T22:46:58.400Z,5.70
2018-07-06T22:49:26.825Z,5.40
2018-07-06T22:51:55.212Z,5.80
2018-07-06T22:54:23.625Z,6.10
2018-07-06T22:56:52.001Z,6.03
2018-07-06T22:59:20.519Z,5.67
2018-07-06T23:01:48.905Z,7.07
2018-07-06T23:04:17.333Z,5.73
2018-07-06T23:06:45.761Z,6.43
2018-07-06T23:09:14.430Z,7.43
2018-07-06T23:11:42.839Z,5.90
2018-07-06T23:14:11.267Z,6.50
2018-07-06T23:16:39.691Z,5.57
2018-07-06T23:19:08.084Z,6.10
2018-07-06T23:21:36.508Z,5.77
2018-07-06T23:24:04.927Z,6.27
2018-07-06T23:26:33.310Z,6.33
2018-07-06T23:29:01.718Z,5.80
2018-07-06T23:31:29.794Z,7.20
2018-07-06T23:33:58.229Z,6.50
2018-07-06T23:36:26.940Z,6.63
2018-07-06T23:38:55.376Z,6.17
2018-07-06T23:41:23.748Z,7.10
2018-07-06T23:43:52.279Z,6.80
2018-07-06T23:46:20.685Z,6.40
2018-07-06T23:48:49.088Z,7.03
2018-07-06T23:51:17.511Z,6.00
2018-07-06T23:53:45.923Z,5.90
2018-07-06T23:56:14.321Z,6.10
2018-07-06T23:58:42.730Z,6.63
